地図

経路データ

SID SEASON NUMBER BASIN SUBBASIN NAME ISO_TIME NATURE LAT LON WMO_WIND WMO_PRES WMO_AGENCY TRACK_TYPE DIST2LAND LANDFALL IFLAG USA_AGENCY USA_ATCF_ID USA_LAT USA_LON USA_RECORD USA_STATUS USA_WIND USA_PRES USA_SSHS USA_R34_NE USA_R34_SE USA_R34_SW USA_R34_NW USA_R50_NE USA_R50_SE USA_R50_SW USA_R50_NW USA_R64_NE USA_R64_SE USA_R64_SW USA_R64_NW USA_POCI USA_ROCI USA_RMW USA_EYE TOKYO_LAT TOKYO_LON TOKYO_GRADE TOKYO_WIND TOKYO_PRES TOKYO_R50_DIR TOKYO_R50_LONG TOKYO_R50_SHORT TOKYO_R30_DIR TOKYO_R30_LONG TOKYO_R30_SHORT TOKYO_LAND CMA_LAT CMA_LON CMA_CAT CMA_WIND CMA_PRES HKO_LAT HKO_LON HKO_CAT HKO_WIND HKO_PRES NEWDELHI_LAT NEWDELHI_LON NEWDELHI_GRADE NEWDELHI_WIND NEWDELHI_PRES NEWDELHI_CI NEWDELHI_DP NEWDELHI_POCI REUNION_LAT REUNION_LON REUNION_TYPE REUNION_WIND REUNION_PRES REUNION_TNUM REUNION_CI REUNION_RMW REUNION_R34_NE REUNION_R34_SE REUNION_R34_SW REUNION_R34_NW REUNION_R50_NE REUNION_R50_SE REUNION_R50_SW REUNION_R50_NW REUNION_R64_NE REUNION_R64_SE REUNION_R64_SW REUNION_R64_NW BOM_LAT BOM_LON BOM_TYPE BOM_WIND BOM_PRES BOM_TNUM BOM_CI BOM_RMW BOM_R34_NE BOM_R34_SE BOM_R34_SW BOM_R34_NW BOM_R50_NE BOM_R50_SE BOM_R50_SW BOM_R50_NW BOM_R64_NE BOM_R64_SE BOM_R64_SW BOM_R64_NW BOM_ROCI BOM_POCI BOM_EYE BOM_POS_METHOD BOM_PRES_METHOD NADI_LAT NADI_LON NADI_CAT NADI_WIND NADI_PRES WELLINGTON_LAT WELLINGTON_LON WELLINGTON_WIND WELLINGTON_PRES DS824_LAT DS824_LON DS824_STAGE DS824_WIND DS824_PRES TD9636_LAT TD9636_LON TD9636_STAGE TD9636_WIND TD9636_PRES TD9635_LAT TD9635_LON TD9635_WIND TD9635_PRES TD9635_ROCI NEUMANN_LAT NEUMANN_LON NEUMANN_CLASS NEUMANN_WIND NEUMANN_PRES MLC_LAT MLC_LON MLC_CLASS MLC_WIND MLC_PRES USA_GUST BOM_GUST BOM_GUST_PER REUNION_GUST REUNION_GUST_PER USA_SEAHGT USA_SEARAD_NE USA_SEARAD_SE USA_SEARAD_SW USA_SEARAD_NW STORM_SPEED STORM_DIR
1946340N11086 1946 74 NI BB NOT_NAMED 1946-12-05 18:00:00 TS 10.7000 86.3000 main 596 586 O________O____ jtwc_io IO171946 10.7000 86.3000 -1 10.7000 86.3000 TC 1 306
1946340N11086 1946 74 NI BB NOT_NAMED 1946-12-05 21:00:00 TS 10.7400 86.2375 main 586 581 P________P____ IO171946 10.7400 86.2375 -1 10.7400 86.2375 TC 2 297
1946340N11086 1946 74 NI BB NOT_NAMED 1946-12-06 00:00:00 TS 10.8000 86.1000 main 581 567 O________O____ jtwc_io IO171946 10.8000 86.1000 -1 10.8000 86.1000 TC 25 4 291
1946340N11086 1946 74 NI BB NOT_NAMED 1946-12-06 03:00:00 TS 10.8933 85.8333 main 558 535 P________PO___ IO171946 10.8925 85.8375 -1 10.8925 85.8375 TC 25 10.9000 85.8000 1 6 288
1946340N11086 1946 74 NI BB NOT_NAMED 1946-12-06 06:00:00 TS 10.9966 85.4931 main 535 514 O________OP___ jtwc_io IO171946 11.0000 85.5000 -1 11.0000 85.5000 TC 25 10.9829 85.4656 1 7 287
1946340N11086 1946 74 NI BB NOT_NAMED 1946-12-06 09:00:00 TS 11.0925 85.1486 main 505 483 P________PP___ IO171946 11.1000 85.1575 -1 11.1000 85.1575 TC 25 11.0726 85.1248 1 7 286
1946340N11086 1946 74 NI BB NOT_NAMED 1946-12-06 12:00:00 TS 11.1920 84.7906 main 483 462 O________OP___ jtwc_io IO171946 11.2000 84.8000 -1 11.2000 84.8000 TC 25 11.1759 84.7717 1 7 286
1946340N11086 1946 74 NI BB NOT_NAMED 1946-12-06 15:00:00 TS 11.2900 84.4333 main 453 431 P________PO___ IO171946 11.2850 84.4499 -1 11.2850 84.4499 TC 25 11.3000 84.4000 1 7 288
1946340N11086 1946 74 NI BB NOT_NAMED 1946-12-06 18:00:00 TS 11.4160 84.0699 main 431 393 O________OP___ jtwc_io IO171946 11.4000 84.1000 -1 11.4000 84.1000 TC 25 11.4480 84.0096 1 8 294
1946340N11086 1946 74 NI BB NOT_NAMED 1946-12-06 21:00:00 TS 11.6026 83.7035 main 393 356 P________PP___ IO171946 11.6000 83.7426 -1 11.6000 83.7426 TC 25 11.6077 83.6253 1 8 298
1946340N11086 1946 74 NI BB NOT_NAMED 1946-12-07 00:00:00 TS 11.7879 83.3594 main 356 322 O________OP___ jtwc_io IO171946 11.8000 83.4000 -1 11.8000 83.4000 TC 25 11.7636 83.2784 1 7 296
1946340N11086 1946 74 NI BB NOT_NAMED 1946-12-07 03:00:00 TS 11.9150 83.0416 main 311 288 P________PO___ IO171946 11.9225 83.0625 -1 11.9225 83.0625 TC 25 11.9000 83.0000 1 6 291
1946340N11086 1946 74 NI BB NOT_NAMED 1946-12-07 06:00:00 TS 11.9988 82.8066 main 288 275 O________OP___ jtwc_io IO171946 12.0000 82.8000 -1 12.0000 82.8000 TC 25 11.9963 82.8198 1 4 292
1946340N11086 1946 74 NI BB NOT_NAMED 1946-12-07 09:00:00 TS 12.0574 82.6782 main 275 264 P________PP___ IO171946 12.0499 82.6625 -1 12.0499 82.6625 TC 25 12.0722 82.7098 1 2 302
1946340N11086 1946 74 NI BB NOT_NAMED 1946-12-07 12:00:00 TS 12.1123 82.6150 main 264 263 O________OP___ jtwc_io IO171946 12.1000 82.6000 -1 12.1000 82.6000 TC 25 12.1370 82.6449 1 2 322
1946340N11086 1946 74 NI BB NOT_NAMED 1946-12-07 15:00:00 TS 12.2000 82.5617 main 263 250 P________PO___ IO171946 12.2000 82.5425 -1 12.2000 82.5425 TC 25 12.2000 82.6000 1 2 327
1946340N11086 1946 74 NI BB NOT_NAMED 1946-12-07 18:00:00 TS 12.2808 82.5024 main 250 240 O________OP___ jtwc_io IO171946 12.3000 82.5000 -1 12.3000 82.5000 TC 25 12.2425 82.5073 1 2 315
1946340N11086 1946 74 NI BB NOT_NAMED 1946-12-07 21:00:00 TS 12.3250 82.4342 main 240 239 P________PP___ IO171946 12.3425 82.4350 -1 12.3425 82.4350 TC 25 12.2900 82.4327 1 1 317
1946340N11086 1946 74 NI BB NOT_NAMED 1946-12-08 00:00:00 TS 12.3892 82.3972 main 239 238 O________OP___ jtwc_io IO171946 12.4000 82.4000 -1 12.4000 82.4000 TC 25 12.3675 82.3917 1 2 0
1946340N11086 1946 74 NI BB NOT_NAMED 1946-12-08 03:00:00 TS 12.5083 82.4134 main 238 238 P________PO___ IO171946 12.5125 82.4200 -1 12.5125 82.4200 TC 25 12.5000 82.4000 1 3 16
1946340N11086 1946 74 NI BB NOT_NAMED 1946-12-08 06:00:00 TS 12.7099 82.4888 main 247 244 O________OP___ jtwc_io IO171946 12.7000 82.5000 -1 12.7000 82.5000 TC 25 12.7297 82.4664 1 5 23
1946340N11086 1946 74 NI BB NOT_NAMED 1946-12-08 09:00:00 TS 12.9942 82.6224 main 251 251 P________PP___ IO171946 12.9850 82.6424 -1 12.9850 82.6424 TC 25 13.0125 82.5823 1 7 25
1946340N11086 1946 74 NI BB NOT_NAMED 1946-12-08 12:00:00 TS 13.3047 82.7774 main 270 270 O________OP___ jtwc_io IO171946 13.3000 82.8000 -1 13.3000 82.8000 TC 25 13.3141 82.7321 1 7 25
1946340N11086 1946 74 NI BB NOT_NAMED 1946-12-08 15:00:00 TS 13.5816 82.9000 main 281 281 P________PO___ IO171946 13.5725 82.9001 -1 13.5725 82.9001 TC 25 13.6000 82.9000 1 5 23
1946340N11086 1946 74 NI BB NOT_NAMED 1946-12-08 18:00:00 TS 13.7798 82.9898 main 291 291 O________OP___ jtwc_io IO171946 13.8000 83.0000 -1 13.8000 83.0000 TC 25 13.7395 82.9694 1 4 29
1946340N11086 1946 74 NI BB NOT_NAMED 1946-12-08 21:00:00 TS 13.9036 83.0873 main 302 297 P________PP___ IO171946 13.9199 83.0978 -1 13.9199 83.0978 TC 25 13.8710 83.0663 1 4 43
1946340N11086 1946 74 NI BB NOT_NAMED 1946-12-09 00:00:00 TS 14.0890 83.2850 main 297 282 O________OP___ jtwc_io IO171946 14.1000 83.3000 -1 14.1000 83.3000 TC 25 14.0671 83.2549 1 8 45
1946340N11086 1946 74 NI BB NOT_NAMED 1946-12-09 03:00:00 TS 14.4398 83.6354 main 282 263 P________PO___ IO171946 14.4597 83.6531 -1 14.4597 83.6531 TC 25 14.4000 83.6000 1 13 44
1946340N11086 1946 74 NI BB NOT_NAMED 1946-12-09 06:00:00 TS 14.9912 84.1916 main 270 270 O________OP___ jtwc_io IO171946 15.0000 84.2000 -1 15.0000 84.2000 TC 25 14.9735 84.1747 1 18 45
1946340N11086 1946 74 NI BB NOT_NAMED 1946-12-09 09:00:00 TS 15.7073 84.9347 main 279 265 P________PP___ IO171946 15.7202 84.9471 -1 15.7202 84.9471 TC 25 15.6815 84.9101 1 21 46
1946340N11086 1946 74 NI BB NOT_NAMED 1946-12-09 12:00:00 TS 16.4828 85.7803 main 270 269 O________OP___ jtwc_io IO171946 16.5000 85.8000 -1 16.5000 85.8000 TC 25 16.4485 85.7408 1 22 47
1946340N11086 1946 74 NI BB NOT_NAMED 1946-12-09 15:00:00 TS 17.1814 86.6004 main 277 263 P________PO___ IO171946 17.1722 86.6006 -1 17.1722 86.6006 TC 25 17.2000 86.6000 1 21 49
1946340N11086 1946 74 NI BB NOT_NAMED 1946-12-09 18:00:00 TS 17.8315 87.4130 main 267 252 O________OP___ jtwc_io IO171946 17.8000 87.4000 -1 17.8000 87.4000 TC 25 17.8787 87.4324 1 20 51
1946340N11086 1946 74 NI BB NOT_NAMED 1946-12-09 21:00:00 TS 18.4421 88.2146 main 260 260 P________PP___ IO171946 18.4057 88.1988 -1 18.4057 88.1988 TC 25 18.4906 88.2357 1 19 52
1946340N11086 1946 74 NI BB NOT_NAMED 1946-12-10 00:00:00 TS 19.0287 89.0106 main 281 235 O________OP___ jtwc_io IO171946 19.0000 89.0000 -1 19.0000 89.0000 TC 25 19.0574 89.0211 1 19 52
1946340N11086 1946 74 NI BB NOT_NAMED 1946-12-10 03:00:00 NR 19.6000 89.8000 main 235 __________O___ IO171946 -1 TC 19.6000 89.8000 1 19 52

IBTrACS Databaseについて

本データベースは、米国NOAAが公開する1842年以降の世界の熱帯低気圧のベストトラックデータアーカイブInternational Best Track Archive for Climate Stewardship (IBTrACS)を、ウェブで閲覧しやすい形式に変換したものです。

最終更新日:2021-10-08